createdAt,value
2022-11-16T00:01:41.978Z,33.33
2022-11-16T00:04:11.912Z,50.08
2022-11-16T00:06:39.010Z,65.82
2022-11-16T00:09:23.788Z,62.28
2022-11-16T00:11:52.321Z,39.47
2022-11-16T00:14:21.569Z,46.85
2022-11-16T00:16:48.300Z,84.68
2022-11-16T00:19:14.872Z,26.85
2022-11-16T00:21:41.753Z,31.83
2022-11-16T00:24:12.119Z,24.40
2022-11-16T00:26:38.642Z,28.15
2022-11-16T00:29:05.134Z,26.98
2022-11-16T00:31:31.818Z,33.47
2022-11-16T00:33:58.350Z,30.80
2022-11-16T00:36:24.857Z,26.30
2022-11-16T00:38:54.523Z,30.27
2022-11-16T00:41:21.546Z,23.38
2022-11-16T00:43:48.147Z,19.90
2022-11-16T00:46:14.714Z,22.58
2022-11-16T00:48:41.251Z,27.10
2022-11-16T00:51:07.813Z,22.13
2022-11-16T00:53:35.689Z,25.42
2022-11-16T00:56:02.395Z,33.72
2022-11-16T00:58:28.902Z,19.95
2022-11-16T01:00:55.571Z,23.08
2022-11-16T01:03:22.141Z,18.88
2022-11-16T01:05:48.687Z,22.65
2022-11-16T01:08:15.240Z,22.10
2022-11-16T01:10:41.990Z,21.40
2022-11-16T01:13:08.531Z,29.17
2022-11-16T01:15:35.045Z,23.20
2022-11-16T01:18:01.535Z,20.52
2022-11-16T01:20:29.498Z,22.52
2022-11-16T01:22:56.450Z,20.60
2022-11-16T01:25:22.974Z,21.13
2022-11-16T01:27:49.524Z,21.90
2022-11-16T01:30:16.722Z,23.85
2022-11-16T01:32:43.296Z,20.10
2022-11-16T01:35:14.409Z,33.72
2022-11-16T01:37:40.948Z,26.70
2022-11-16T01:40:08.124Z,19.00
2022-11-16T01:42:34.735Z,22.98
2022-11-16T01:45:04.232Z,21.52
2022-11-16T01:47:31.245Z,23.08
2022-11-16T01:50:09.196Z,16.42
2022-11-16T01:52:38.730Z,21.33
2022-11-16T01:55:06.006Z,17.75
2022-11-16T01:57:36.409Z,20.25
2022-11-16T02:00:07.040Z,21.83
2022-11-16T02:02:33.698Z,19.35
2022-11-16T02:05:01.904Z,23.80
2022-11-16T02:07:54.351Z,22.30
2022-11-16T02:10:30.782Z,20.77
2022-11-16T02:13:06.125Z,24.45
2022-11-16T02:16:26.295Z,19.42
2022-11-16T02:19:22.650Z,24.80
2022-11-16T02:22:14.568Z,21.58
2022-11-16T02:24:47.335Z,54.33
2022-11-16T02:27:35.269Z,47.33
2022-11-16T02:30:04.126Z,56.72
2022-11-16T02:32:44.091Z,34.22
2022-11-16T02:35:46.706Z,42.22
2022-11-16T02:38:21.508Z,22.60
2022-11-16T02:40:53.908Z,50.10
2022-11-16T02:43:30.890Z,25.17
2022-11-16T02:46:01.624Z,30.50
2022-11-16T02:48:35.761Z,26.25
2022-11-16T02:51:03.854Z,37.25
2022-11-16T02:53:37.206Z,18.45
2022-11-16T02:56:03.819Z,26.90
2022-11-16T02:58:30.655Z,26.52
2022-11-16T03:01:08.608Z,53.72
2022-11-16T03:03:47.344Z,20.92
2022-11-16T03:06:19.170Z,19.65
2022-11-16T03:08:56.800Z,22.00
2022-11-16T03:11:42.462Z,22.33
2022-11-16T03:14:14.504Z,18.48
2022-11-16T03:16:48.864Z,24.35
2022-11-16T03:19:22.392Z,23.77
2022-11-16T03:21:58.130Z,18.65
2022-11-16T03:24:25.441Z,18.45
2022-11-16T03:26:57.863Z,20.40
2022-11-16T03:29:31.492Z,17.73
2022-11-16T03:34:35.573Z,16.88
2022-11-16T03:37:04.200Z,19.50
2022-11-16T03:39:36.615Z,20.25
2022-11-16T03:42:06.921Z,19.67
2022-11-16T03:44:35.141Z,22.05
2022-11-16T03:47:01.974Z,15.38
2022-11-16T03:49:31.157Z,18.05
2022-11-16T03:51:58.337Z,15.07
2022-11-16T03:54:25.303Z,18.65
2022-11-16T03:56:51.890Z,20.88
2022-11-16T03:59:18.438Z,20.10
2022-11-16T04:01:45.152Z,21.52
2022-11-16T04:04:31.904Z,24.67
2022-11-16T04:07:17.096Z,23.73
2022-11-16T04:10:02.147Z,19.65
2022-11-16T04:12:47.502Z,21.48
2022-11-16T04:15:32.518Z,19.63
2022-11-16T04:18:17.438Z,17.00
2022-11-16T04:21:04.050Z,24.55
2022-11-16T04:23:49.362Z,23.42
2022-11-16T04:26:16.179Z,25.10
2022-11-16T04:28:43.213Z,28.92
2022-11-16T04:31:28.559Z,20.35
2022-11-16T04:34:13.780Z,21.08
2022-11-16T04:36:58.694Z,25.77
2022-11-16T04:39:25.287Z,18.25
2022-11-16T04:42:10.342Z,20.00
2022-11-16T04:44:56.042Z,16.20
2022-11-16T04:47:22.622Z,21.10
2022-11-16T04:49:49.205Z,24.30
2022-11-16T04:52:15.858Z,16.67
2022-11-16T04:54:42.390Z,21.42
2022-11-16T04:57:09.050Z,21.23
2022-11-16T04:59:35.544Z,16.65
2022-11-16T05:02:08.187Z,20.77
2022-11-16T05:04:39.309Z,20.23
2022-11-16T05:07:11.107Z,18.88
2022-11-16T05:09:41.463Z,18.10
2022-11-16T05:12:14.950Z,27.52
2022-11-16T05:14:42.900Z,19.98
2022-11-16T05:17:10.023Z,21.40
2022-11-16T05:19:55.390Z,17.15
2022-11-16T05:22:22.441Z,17.80
2022-11-16T05:24:49.039Z,18.70
2022-11-16T05:27:17.018Z,17.80
2022-11-16T05:29:44.187Z,23.77
2022-11-16T05:32:12.575Z,18.05
2022-11-16T05:34:39.650Z,15.88
2022-11-16T05:37:06.288Z,17.73
2022-11-16T05:39:33.820Z,17.80
2022-11-16T05:42:00.805Z,19.15
2022-11-16T05:44:27.349Z,21.10
2022-11-16T05:46:55.247Z,20.58
2022-11-16T05:49:22.007Z,21.75
2022-11-16T05:51:49.162Z,31.60
2022-11-16T05:54:21.192Z,17.73
2022-11-16T05:56:49.603Z,19.10
2022-11-16T05:59:18.842Z,26.33
2022-11-16T06:01:46.188Z,23.60
2022-11-16T06:04:13.878Z,20.63
2022-11-16T06:06:40.808Z,21.30
2022-11-16T06:09:08.607Z,18.92
2022-11-16T06:11:36.475Z,25.30
2022-11-16T06:14:03.483Z,20.50
2022-11-16T06:16:30.014Z,17.85
2022-11-16T06:18:56.701Z,18.55
2022-11-16T06:21:23.449Z,17.42
2022-11-16T06:23:50.033Z,18.73
2022-11-16T06:26:17.831Z,19.08
2022-11-16T06:28:44.861Z,26.30
2022-11-16T06:31:11.417Z,22.35
2022-11-16T06:33:38.076Z,27.25
2022-11-16T06:36:05.034Z,21.30
2022-11-16T06:38:31.868Z,24.02
2022-11-16T06:40:59.430Z,19.27
2022-11-16T06:43:26.463Z,17.42
2022-11-16T06:45:56.139Z,22.85
2022-11-16T06:48:22.759Z,19.63
2022-11-16T06:50:50.634Z,24.65
2022-11-16T06:53:17.729Z,17.80
2022-11-16T06:55:44.425Z,21.80
2022-11-16T06:58:11.218Z,15.27
2022-11-16T07:00:39.617Z,20.20
2022-11-16T07:03:06.227Z,17.63
2022-11-16T07:05:33.220Z,18.05
2022-11-16T07:07:59.801Z,14.85
2022-11-16T07:10:26.516Z,19.42
2022-11-16T07:12:53.063Z,18.92
2022-11-16T07:15:19.744Z,17.90
2022-11-16T07:17:46.270Z,14.52
2022-11-16T07:20:13.273Z,17.35
2022-11-16T07:22:39.946Z,21.73
2022-11-16T07:25:07.163Z,16.70
2022-11-16T07:27:33.741Z,16.92
2022-11-16T07:30:02.109Z,15.00
2022-11-16T07:32:30.852Z,12.52
2022-11-16T07:34:59.637Z,16.77
2022-11-16T07:37:26.908Z,14.63
2022-11-16T07:39:53.424Z,13.48
2022-11-16T07:42:19.974Z,14.95
2022-11-16T07:44:46.555Z,15.85
2022-11-16T07:47:13.034Z,15.57
2022-11-16T07:49:39.653Z,19.35
2022-11-16T07:52:09.711Z,13.88
2022-11-16T07:54:36.958Z,13.82
2022-11-16T07:57:03.614Z,14.75
2022-11-16T07:59:31.193Z,14.70
2022-11-16T08:01:59.270Z,12.40
2022-11-16T08:04:26.075Z,20.27
2022-11-16T08:06:52.740Z,13.60
2022-11-16T08:09:19.418Z,13.93
2022-11-16T08:11:47.150Z,14.07
2022-11-16T08:14:14.023Z,13.77
2022-11-16T08:16:40.566Z,14.00
2022-11-16T08:19:07.045Z,13.93
2022-11-16T08:21:33.692Z,17.13
2022-11-16T08:24:02.243Z,13.93
2022-11-16T08:26:28.893Z,15.48
2022-11-16T08:28:56.550Z,14.88
2022-11-16T08:31:26.078Z,17.27
2022-11-16T08:33:52.957Z,16.58
2022-11-16T08:36:19.877Z,12.23
2022-11-16T08:38:48.160Z,12.10
2022-11-16T08:41:15.983Z,14.90
2022-11-16T08:43:42.628Z,14.32
2022-11-16T08:46:10.463Z,12.77
2022-11-16T08:48:38.110Z,11.07
2022-11-16T08:51:22.522Z,11.25
2022-11-16T08:53:50.110Z,9.52
2022-11-16T08:56:18.662Z,10.90
2022-11-16T08:58:51.371Z,12.82
2022-11-16T09:01:22.889Z,15.85
2022-11-16T09:03:50.034Z,19.02
2022-11-16T09:06:16.975Z,13.35
2022-11-16T09:08:44.654Z,12.88
2022-11-16T09:11:14.055Z,12.18
2022-11-16T09:13:40.590Z,13.82
2022-11-16T09:16:07.452Z,12.77
2022-11-16T09:18:34.731Z,12.10
2022-11-16T09:21:01.547Z,13.30
2022-11-16T09:23:28.086Z,12.55
2022-11-16T09:25:55.422Z,12.57
2022-11-16T09:28:22.622Z,15.35
2022-11-16T09:30:51.258Z,13.23
2022-11-16T09:33:18.265Z,12.25
2022-11-16T09:35:44.921Z,10.65
2022-11-16T09:38:19.117Z,8.43
2022-11-16T09:40:52.075Z,10.43
2022-11-16T09:43:45.839Z,13.75
2022-11-16T09:48:58.096Z,12.35
2022-11-16T09:51:29.556Z,10.68
2022-11-16T09:54:14.093Z,10.18
2022-11-16T09:56:42.414Z,11.75
2022-11-16T09:59:12.226Z,10.73
2022-11-16T10:01:47.953Z,7.70
2022-11-16T10:04:38.582Z,11.90
2022-11-16T10:07:27.529Z,13.02
2022-11-16T10:09:56.092Z,9.73
2022-11-16T10:12:43.780Z,11.10
2022-11-16T10:15:37.124Z,10.02
2022-11-16T10:18:06.504Z,8.90
2022-11-16T10:20:51.811Z,10.57
2022-11-16T10:23:24.254Z,10.60
2022-11-16T10:25:58.909Z,9.02
2022-11-16T10:28:55.820Z,10.07
2022-11-16T10:31:51.393Z,9.40
2022-11-16T10:34:22.811Z,8.63
2022-11-16T10:36:49.376Z,9.73
2022-11-16T10:39:19.166Z,10.10
2022-11-16T10:41:53.055Z,7.35
2022-11-16T10:44:30.139Z,9.80
2022-11-16T10:47:19.941Z,11.45
2022-11-16T10:50:02.240Z,9.77
2022-11-16T10:52:28.908Z,9.18
2022-11-16T10:54:55.405Z,8.65
2022-11-16T10:57:23.843Z,8.63
2022-11-16T10:59:55.431Z,11.18
2022-11-16T11:02:24.665Z,10.13
2022-11-16T11:05:17.141Z,10.95
2022-11-16T11:07:48.706Z,8.10
2022-11-16T11:10:35.335Z,13.30
2022-11-16T11:13:04.330Z,9.82
2022-11-16T11:15:31.246Z,8.13
2022-11-16T11:18:24.910Z,9.43
2022-11-16T11:21:12.348Z,10.52
2022-11-16T11:23:46.830Z,7.25
2022-11-16T11:26:36.188Z,9.32
2022-11-16T11:29:16.904Z,12.70
2022-11-16T11:31:47.192Z,7.70
2022-11-16T11:34:21.783Z,8.25
2022-11-16T11:36:55.661Z,7.45
2022-11-16T11:39:22.157Z,9.18
2022-11-16T11:42:14.804Z,8.43
2022-11-16T11:44:52.070Z,7.35
2022-11-16T11:50:24.767Z,9.85
2022-11-16T11:53:11.601Z,10.68
2022-11-16T11:55:39.666Z,11.80
2022-11-16T11:58:15.317Z,12.77
2022-11-16T12:01:25.049Z,7.50
2022-11-16T12:03:58.479Z,12.18
2022-11-16T12:06:51.028Z,9.60
2022-11-16T12:09:29.870Z,10.90
2022-11-16T12:12:22.395Z,12.35
2022-11-16T12:15:12.223Z,11.90
2022-11-16T12:17:55.659Z,10.52
2022-11-16T12:20:45.160Z,11.90
2022-11-16T12:23:14.701Z,7.07
2022-11-16T12:26:06.808Z,6.97
2022-11-16T12:28:51.235Z,7.00
2022-11-16T12:31:27.332Z,5.28
2022-11-16T12:34:04.973Z,9.18
2022-11-16T12:37:02.322Z,5.95
2022-11-16T12:39:35.755Z,6.43
2022-11-16T12:42:20.574Z,8.43
2022-11-16T12:45:05.466Z,8.38
2022-11-16T12:48:01.199Z,6.93
2022-11-16T12:50:46.574Z,7.53
2022-11-16T12:53:34.902Z,7.22
2022-11-16T12:56:48.888Z,7.38
2022-11-16T12:59:44.617Z,7.07
2022-11-16T13:02:29.505Z,8.20
2022-11-16T13:05:12.342Z,9.27
2022-11-16T13:08:05.459Z,6.82
2022-11-16T13:10:36.642Z,8.02
2022-11-16T13:13:35.404Z,11.20
2022-11-16T13:16:02.504Z,8.18
2022-11-16T13:18:30.142Z,10.13
2022-11-16T13:21:18.806Z,10.57
2022-11-16T13:24:33.664Z,10.27
2022-11-16T13:29:48.255Z,11.00
2022-11-16T13:32:37.386Z,9.90
2022-11-16T13:35:06.567Z,11.15
2022-11-16T13:37:39.245Z,15.85
2022-11-16T13:40:05.675Z,12.40
2022-11-16T13:42:43.830Z,11.35
2022-11-16T13:45:21.961Z,12.57
2022-11-16T13:47:51.805Z,8.88
2022-11-16T13:50:26.487Z,7.88
2022-11-16T13:54:10.942Z,9.85
2022-11-16T13:55:46.787Z,9.30
2022-11-16T13:58:21.236Z,8.55
2022-11-16T14:01:01.813Z,9.52
2022-11-16T14:03:31.987Z,7.85
2022-11-16T14:05:58.783Z,9.90
2022-11-16T14:08:35.033Z,10.43
2022-11-16T14:11:03.334Z,9.48
2022-11-16T14:13:48.444Z,7.15
2022-11-16T14:16:14.882Z,7.90
2022-11-16T14:18:42.839Z,6.55
2022-11-16T14:21:40.214Z,8.70
2022-11-16T14:24:09.434Z,6.30
2022-11-16T14:26:57.918Z,8.20
2022-11-16T14:30:01.793Z,8.07
2022-11-16T14:32:41.248Z,6.90
2022-11-16T14:35:25.985Z,6.20
2022-11-16T14:38:04.641Z,7.53
2022-11-16T14:40:42.011Z,8.60
2022-11-16T14:43:28.082Z,9.25
2022-11-16T14:46:04.360Z,6.38
2022-11-16T14:48:31.340Z,7.25
2022-11-16T14:51:13.371Z,6.85
2022-11-16T14:53:45.604Z,6.07
2022-11-16T14:56:14.763Z,4.70
2022-11-16T14:59:00.639Z,7.88
2022-11-16T15:01:38.929Z,8.70
2022-11-16T15:04:12.228Z,8.38
2022-11-16T15:06:45.688Z,8.15
2022-11-16T15:09:40.534Z,7.43
2022-11-16T15:12:33.107Z,7.53
2022-11-16T15:15:07.323Z,4.53
2022-11-16T15:17:34.710Z,6.70
2022-11-16T15:20:04.650Z,8.45
2022-11-16T15:22:39.298Z,6.45
2022-11-16T15:25:06.264Z,6.20
2022-11-16T15:27:38.712Z,5.57
2022-11-16T15:30:27.402Z,5.13
2022-11-16T15:32:54.846Z,7.00
2022-11-16T15:35:32.944Z,5.30
2022-11-16T15:38:11.339Z,6.25
2022-11-16T15:40:38.069Z,5.25
2022-11-16T15:43:06.557Z,4.90
2022-11-16T15:45:34.081Z,5.15
2022-11-16T15:48:03.361Z,5.50
2022-11-16T15:50:30.292Z,9.25
2022-11-16T15:52:59.579Z,7.80
2022-11-16T15:55:36.194Z,5.88
2022-11-16T15:58:26.440Z,5.35
2022-11-16T16:00:54.632Z,4.85
2022-11-16T16:03:26.571Z,6.38
2022-11-16T16:05:54.576Z,5.50
2022-11-16T16:08:34.061Z,6.38
2022-11-16T16:11:27.671Z,4.72
2022-11-16T16:14:02.627Z,4.63
2022-11-16T16:16:31.857Z,5.20
2022-11-16T16:19:06.667Z,5.65
2022-11-16T16:21:45.751Z,5.03
2022-11-16T16:24:38.959Z,7.80
2022-11-16T16:27:19.658Z,6.47
2022-11-16T16:29:47.621Z,6.90
2022-11-16T16:32:24.570Z,6.38
2022-11-16T16:34:53.037Z,6.30
2022-11-16T16:37:19.996Z,6.80
2022-11-16T16:39:46.642Z,4.72
2022-11-16T16:42:15.905Z,4.18
2022-11-16T16:44:44.260Z,6.93
2022-11-16T16:47:11.284Z,4.63
2022-11-16T16:49:38.100Z,5.32
2022-11-16T16:52:05.701Z,7.47
2022-11-16T16:54:32.257Z,14.02
2022-11-16T16:57:01.365Z,8.30
2022-11-16T16:59:29.951Z,113.10
2022-11-16T17:01:57.589Z,26.95
2022-11-16T17:04:24.432Z,20.88
2022-11-16T17:06:52.846Z,13.63
2022-11-16T17:09:19.619Z,8.93
2022-11-16T17:11:47.431Z,8.82
2022-11-16T17:14:13.979Z,16.52
2022-11-16T17:16:40.520Z,9.55
2022-11-16T17:19:07.116Z,13.32
2022-11-16T17:21:33.621Z,9.65
2022-11-16T17:24:00.431Z,9.52
2022-11-16T17:26:29.615Z,8.70
2022-11-16T17:28:57.539Z,7.45
2022-11-16T17:31:25.779Z,10.63
2022-11-16T17:33:52.774Z,5.93
2022-11-16T17:36:19.746Z,6.80
2022-11-16T17:38:46.881Z,9.27
2022-11-16T17:41:18.739Z,7.75
2022-11-16T17:43:46.406Z,5.95
2022-11-16T17:46:18.705Z,7.30
2022-11-16T17:48:47.222Z,6.70
2022-11-16T17:51:22.043Z,6.35
2022-11-16T17:53:49.856Z,6.50
2022-11-16T17:56:19.099Z,7.85
2022-11-16T17:58:46.091Z,7.15
2022-11-16T18:01:13.888Z,6.45
2022-11-16T18:03:40.463Z,8.85
2022-11-16T18:06:18.807Z,8.35
2022-11-16T18:08:45.721Z,7.75
2022-11-16T18:11:21.074Z,7.63
2022-11-16T18:13:48.100Z,6.88
2022-11-16T18:16:16.025Z,8.45
2022-11-16T18:18:43.290Z,9.13
2022-11-16T18:21:11.964Z,6.72
2022-11-16T18:23:40.756Z,13.40
2022-11-16T18:26:13.749Z,10.05
2022-11-16T18:28:41.164Z,13.32
2022-11-16T18:31:11.258Z,11.25
2022-11-16T18:33:39.019Z,10.32
2022-11-16T18:36:07.473Z,19.73
2022-11-16T18:38:34.393Z,11.93
2022-11-16T18:41:03.880Z,12.80
2022-11-16T18:43:30.535Z,9.10
2022-11-16T18:45:57.038Z,9.65
2022-11-16T18:48:23.583Z,12.55
2022-11-16T18:50:50.118Z,8.98
2022-11-16T18:53:16.631Z,11.27
2022-11-16T18:55:44.192Z,11.20
2022-11-16T18:58:23.072Z,7.95
2022-11-16T19:01:08.819Z,9.55
2022-11-16T19:03:35.714Z,8.15
2022-11-16T19:06:07.753Z,8.02
2022-11-16T19:08:35.390Z,10.02
2022-11-16T19:11:10.133Z,6.57
2022-11-16T19:13:37.448Z,9.40
2022-11-16T19:16:05.070Z,8.00
2022-11-16T19:18:31.628Z,7.40
2022-11-16T19:21:12.889Z,9.25
2022-11-16T19:23:42.847Z,7.10
2022-11-16T19:26:12.210Z,8.38
2022-11-16T19:28:40.425Z,8.18
2022-11-16T19:31:12.612Z,6.32
2022-11-16T19:33:40.121Z,8.52
2022-11-16T19:36:07.642Z,7.28
2022-11-16T19:38:34.494Z,7.15
2022-11-16T19:41:01.624Z,8.05
2022-11-16T19:43:28.196Z,8.82
2022-11-16T19:45:54.778Z,10.07
2022-11-16T19:48:21.368Z,10.07
2022-11-16T19:50:47.911Z,8.65
2022-11-16T19:53:14.410Z,8.43
2022-11-16T19:55:41.877Z,9.90
2022-11-16T19:58:08.355Z,9.00
2022-11-16T20:00:34.977Z,7.88
2022-11-16T20:03:01.671Z,6.55
2022-11-16T20:05:30.053Z,8.57
2022-11-16T20:07:56.592Z,12.50
2022-11-16T20:10:23.084Z,11.90
2022-11-16T20:12:49.769Z,8.52
2022-11-16T20:15:16.455Z,10.25
2022-11-16T20:17:42.994Z,11.68
2022-11-16T20:20:09.807Z,10.93
2022-11-16T20:22:36.334Z,11.43
2022-11-16T20:25:02.909Z,11.95
2022-11-16T20:27:29.421Z,13.63
2022-11-16T20:29:55.974Z,12.13
2022-11-16T20:32:23.744Z,10.43
2022-11-16T20:34:50.290Z,14.45
2022-11-16T20:37:17.208Z,12.77
2022-11-16T20:39:45.964Z,9.68
2022-11-16T20:42:13.386Z,7.63
2022-11-16T20:44:39.913Z,8.85
2022-11-16T20:47:06.488Z,8.00
2022-11-16T20:49:33.038Z,7.60
2022-11-16T20:51:59.610Z,8.48
2022-11-16T20:54:26.329Z,8.50
2022-11-16T20:56:52.900Z,7.13
2022-11-16T20:59:19.675Z,8.02
2022-11-16T21:01:48.755Z,10.65
2022-11-16T21:04:15.560Z,13.80
2022-11-16T21:06:42.262Z,9.05
2022-11-16T21:09:11.795Z,11.13
2022-11-16T21:11:56.792Z,8.30
2022-11-16T21:14:23.437Z,9.95
2022-11-16T21:16:49.975Z,7.40
2022-11-16T21:19:19.654Z,9.65
2022-11-16T21:21:48.482Z,8.38
2022-11-16T21:24:15.391Z,12.50
2022-11-16T21:26:41.924Z,9.70
2022-11-16T21:29:08.702Z,10.18
2022-11-16T21:31:36.575Z,10.15
2022-11-16T21:34:03.731Z,10.15
2022-11-16T21:36:32.113Z,10.35
2022-11-16T21:38:59.107Z,10.25
2022-11-16T21:41:26.548Z,5.07
2022-11-16T21:43:55.054Z,8.13
2022-11-16T21:46:24.868Z,6.13
2022-11-16T21:48:52.898Z,6.25
2022-11-16T21:51:21.835Z,5.80
2022-11-16T21:53:48.870Z,6.03
2022-11-16T21:56:20.950Z,5.32
2022-11-16T21:58:49.811Z,5.95
2022-11-16T22:01:16.523Z,4.65
2022-11-16T22:03:44.697Z,6.95
2022-11-16T22:06:34.207Z,5.30
2022-11-16T22:09:01.432Z,8.38
2022-11-16T22:11:28.116Z,9.75
2022-11-16T22:13:54.618Z,14.40
2022-11-16T22:16:23.325Z,9.02
2022-11-16T22:18:50.341Z,9.82
2022-11-16T22:21:16.948Z,10.20
2022-11-16T22:23:43.488Z,5.07
2022-11-16T22:26:12.565Z,8.35
2022-11-16T22:28:39.439Z,6.78
2022-11-16T22:31:14.008Z,8.18
2022-11-16T22:33:41.810Z,5.35
2022-11-16T22:36:10.382Z,7.80
2022-11-16T22:38:36.992Z,7.43
2022-11-16T22:41:03.704Z,6.40
2022-11-16T22:43:31.127Z,5.40
2022-11-16T22:46:02.106Z,6.47
2022-11-16T22:48:37.771Z,4.43
2022-11-16T22:51:05.736Z,4.50
2022-11-16T22:53:32.914Z,7.72
2022-11-16T22:56:04.829Z,6.88
2022-11-16T22:58:31.373Z,7.13
2022-11-16T23:00:58.045Z,7.60
2022-11-16T23:03:24.649Z,7.32
2022-11-16T23:05:51.345Z,10.00
2022-11-16T23:08:17.920Z,8.18
2022-11-16T23:11:04.046Z,8.60
2022-11-16T23:13:48.897Z,7.75
2022-11-16T23:16:15.397Z,6.82
2022-11-16T23:18:41.909Z,9.68
2022-11-16T23:21:27.097Z,6.20
2022-11-16T23:24:25.662Z,7.50
2022-11-16T23:27:10.589Z,7.53
2022-11-16T23:29:37.143Z,8.05
2022-11-16T23:32:03.790Z,7.75
2022-11-16T23:34:30.315Z,7.82
2022-11-16T23:37:02.757Z,5.97
2022-11-16T23:39:29.378Z,6.82
2022-11-16T23:42:14.702Z,6.78
2022-11-16T23:44:41.744Z,5.30
2022-11-16T23:47:08.613Z,6.43
2022-11-16T23:49:35.199Z,5.60
2022-11-16T23:52:01.945Z,7.15
2022-11-16T23:54:28.440Z,6.30
2022-11-16T23:56:54.977Z,4.55
2022-11-16T23:59:21.485Z,5.75
